createdAt,value
2017-06-23T00:00:05.120Z,0
2017-06-23T00:01:06.983Z,0
2017-06-23T00:02:08.846Z,0
2017-06-23T00:03:10.644Z,0
2017-06-23T00:04:12.456Z,0
2017-06-23T00:05:14.310Z,0
2017-06-23T00:06:16.187Z,0
2017-06-23T00:07:18.054Z,0
2017-06-23T00:08:32.181Z,0
2017-06-23T00:09:34.049Z,0
2017-06-23T00:10:35.929Z,0
2017-06-23T00:11:37.790Z,0
2017-06-23T00:12:39.584Z,0
2017-06-23T00:13:41.390Z,0
2017-06-23T00:14:43.211Z,0
2017-06-23T00:15:45.009Z,0
2017-06-23T00:16:46.805Z,0
2017-06-23T00:18:00.940Z,0
2017-06-23T00:19:02.819Z,0
2017-06-23T00:20:04.681Z,0
2017-06-23T00:21:06.542Z,0
2017-06-23T00:22:08.338Z,0
2017-06-23T00:23:10.139Z,0
2017-06-23T00:24:12.002Z,0
2017-06-23T00:25:13.886Z,0
2017-06-23T00:26:15.746Z,0
2017-06-23T00:27:29.882Z,0
2017-06-23T00:28:31.750Z,0
2017-06-23T00:29:33.633Z,0
2017-06-23T00:30:35.496Z,0
2017-06-23T00:31:37.297Z,0
2017-06-23T00:32:39.096Z,0
2017-06-23T00:33:40.959Z,0
2017-06-23T00:34:42.842Z,0
2017-06-23T00:35:44.706Z,0
2017-06-23T00:36:58.837Z,0
2017-06-23T00:38:00.699Z,0
2017-06-23T00:39:02.586Z,0
2017-06-23T00:40:04.445Z,0
2017-06-23T00:41:06.247Z,0
2017-06-23T00:42:08.063Z,0
2017-06-23T00:43:09.928Z,0
2017-06-23T00:44:11.788Z,0
2017-06-23T00:45:13.650Z,0
2017-06-23T00:46:27.807Z,0
2017-06-23T00:47:29.691Z,0
2017-06-23T00:48:31.579Z,0
2017-06-23T00:49:33.461Z,0
2017-06-23T00:50:35.261Z,0
2017-06-23T00:51:37.064Z,0
2017-06-23T00:52:38.946Z,0
2017-06-23T00:53:40.818Z,0
2017-06-23T00:54:42.703Z,0
2017-06-23T00:55:56.855Z,0
2017-06-23T00:56:58.715Z,0
2017-06-23T00:58:00.578Z,0
2017-06-23T00:59:02.446Z,0
2017-06-23T01:00:04.248Z,0
2017-06-23T01:01:06.068Z,0
2017-06-23T01:02:07.933Z,0
2017-06-23T01:03:09.814Z,0
2017-06-23T01:04:11.701Z,0
2017-06-23T01:05:25.871Z,0
2017-06-23T01:06:27.711Z,0
2017-06-23T01:07:29.580Z,0
2017-06-23T01:08:31.463Z,0
2017-06-23T01:09:33.282Z,0
2017-06-23T01:10:35.102Z,0
2017-06-23T01:11:36.970Z,0
2017-06-23T01:12:38.851Z,0
2017-06-23T01:13:40.717Z,0
2017-06-23T01:14:54.873Z,0
2017-06-23T01:15:56.757Z,0
2017-06-23T01:16:58.640Z,0
2017-06-23T01:18:00.506Z,0
2017-06-23T01:19:02.328Z,0
2017-06-23T01:20:04.128Z,0
2017-06-23T01:21:05.991Z,0
2017-06-23T01:22:07.872Z,0
2017-06-23T01:23:09.758Z,0
2017-06-23T01:24:23.938Z,0
2017-06-23T01:25:25.804Z,0
2017-06-23T01:26:27.686Z,0
2017-06-23T01:27:29.548Z,0
2017-06-23T01:28:31.351Z,0
2017-06-23T01:29:33.152Z,0
2017-06-23T01:30:35.012Z,0
2017-06-23T01:31:36.877Z,0
2017-06-23T01:32:38.741Z,0
2017-06-23T01:33:52.873Z,0
2017-06-23T01:34:54.759Z,0
2017-06-23T01:35:56.646Z,0
2017-06-23T01:36:58.510Z,0
2017-06-23T01:38:00.333Z,0
2017-06-23T01:39:02.136Z,0
2017-06-23T01:40:04.017Z,0
2017-06-23T01:41:05.881Z,0
2017-06-23T01:42:07.747Z,0
2017-06-23T01:43:21.861Z,0
2017-06-23T01:44:23.678Z,0
2017-06-23T01:45:25.480Z,0
2017-06-23T01:46:27.302Z,0
2017-06-23T01:47:29.133Z,0
2017-06-23T01:48:31.011Z,0
2017-06-23T01:49:32.877Z,0
2017-06-23T01:50:34.694Z,0
2017-06-23T01:51:36.512Z,0
2017-06-23T01:52:50.642Z,0
2017-06-23T01:53:52.510Z,0
2017-06-23T01:54:54.391Z,0
2017-06-23T01:55:56.256Z,0
2017-06-23T01:56:58.077Z,0
2017-06-23T01:57:59.900Z,0
2017-06-23T01:59:01.780Z,0
2017-06-23T02:00:03.645Z,0
2017-06-23T02:01:05.511Z,0
2017-06-23T02:02:19.662Z,0
2017-06-23T02:03:21.548Z,0
2017-06-23T02:04:23.432Z,0
2017-06-23T02:05:25.299Z,0
2017-06-23T02:06:27.101Z,0
2017-06-23T02:07:28.921Z,0
2017-06-23T02:08:30.786Z,0
2017-06-23T02:09:32.606Z,0
2017-06-23T02:10:34.406Z,0
2017-06-23T02:11:48.540Z,0
2017-06-23T02:12:50.423Z,0
2017-06-23T02:13:52.305Z,0
2017-06-23T02:14:54.172Z,0
2017-06-23T02:15:56.000Z,0
2017-06-23T02:16:57.813Z,0
2017-06-23T02:17:59.684Z,0
2017-06-23T02:19:01.572Z,0
2017-06-23T02:20:03.437Z,0
2017-06-23T02:21:17.590Z,0
2017-06-23T02:22:19.453Z,0
2017-06-23T02:23:21.323Z,0
2017-06-23T02:24:23.192Z,0
2017-06-23T02:25:25.019Z,0
2017-06-23T02:26:26.835Z,0
2017-06-23T02:27:28.702Z,0
2017-06-23T02:28:30.567Z,0
2017-06-23T02:29:32.435Z,0
2017-06-23T02:30:46.566Z,0
2017-06-23T02:31:48.426Z,0
2017-06-23T02:32:50.293Z,0
2017-06-23T02:33:52.159Z,0
2017-06-23T02:34:53.963Z,0
2017-06-23T02:35:55.765Z,0
2017-06-23T02:36:57.656Z,0
2017-06-23T02:37:59.544Z,0
2017-06-23T02:39:01.425Z,0
2017-06-23T02:40:15.561Z,0
2017-06-23T02:41:17.615Z,0
2017-06-23T02:42:19.519Z,5
2017-06-23T02:43:21.388Z,5
2017-06-23T02:44:23.192Z,5
2017-06-23T02:45:25.016Z,5
2017-06-23T02:46:26.883Z,5
2017-06-23T02:47:28.771Z,10
2017-06-23T02:48:30.659Z,10
2017-06-23T02:49:44.791Z,10
2017-06-23T02:50:46.661Z,10
2017-06-23T02:51:48.551Z,10
2017-06-23T02:52:50.421Z,15
2017-06-23T02:53:52.249Z,15
2017-06-23T02:54:54.071Z,15
2017-06-23T02:55:55.938Z,15
2017-06-23T02:56:57.805Z,20
2017-06-23T02:57:59.686Z,20
2017-06-23T02:59:13.816Z,20
2017-06-23T03:00:15.679Z,25
2017-06-23T03:01:17.560Z,25
2017-06-23T03:02:19.420Z,25
2017-06-23T03:03:21.225Z,25
2017-06-23T03:04:23.032Z,30
2017-06-23T03:05:24.915Z,30
2017-06-23T03:06:26.781Z,30
2017-06-23T03:07:28.648Z,35
2017-06-23T03:08:42.786Z,35
2017-06-23T03:09:44.654Z,35
2017-06-23T03:10:46.544Z,40
2017-06-23T03:11:48.423Z,40
2017-06-23T03:12:50.235Z,45
2017-06-23T03:13:52.055Z,50
2017-06-23T03:14:53.921Z,55
2017-06-23T03:15:55.792Z,60
2017-06-23T03:16:57.654Z,65
2017-06-23T03:18:11.792Z,70
2017-06-23T03:19:13.654Z,65
2017-06-23T03:20:15.530Z,60
2017-06-23T03:21:17.387Z,55
2017-06-23T03:22:19.194Z,55
2017-06-23T03:23:21.024Z,55
2017-06-23T03:24:22.896Z,55
2017-06-23T03:25:24.777Z,55
2017-06-23T03:26:26.647Z,50
2017-06-23T03:27:40.777Z,40
2017-06-23T03:28:42.644Z,30
2017-06-23T03:29:44.512Z,25
2017-06-23T03:30:46.399Z,25
2017-06-23T03:31:48.204Z,20
2017-06-23T03:32:50.025Z,20
2017-06-23T03:33:51.896Z,20
2017-06-23T03:34:53.786Z,20
2017-06-23T03:35:55.676Z,25
2017-06-23T03:37:09.830Z,25
2017-06-23T03:38:11.694Z,25
2017-06-23T03:39:13.561Z,30
2017-06-23T03:40:15.431Z,35
2017-06-23T03:41:17.236Z,30
2017-06-23T03:42:19.058Z,30
2017-06-23T03:43:20.947Z,25
2017-06-23T03:44:22.816Z,25
2017-06-23T03:45:24.708Z,50
2017-06-23T03:46:38.866Z,55
2017-06-23T03:47:40.754Z,75
2017-06-23T03:48:42.622Z,95
2017-06-23T03:49:44.493Z,110
2017-06-23T03:50:46.320Z,120
2017-06-23T03:51:48.123Z,135
2017-06-23T03:52:49.994Z,155
2017-06-23T03:53:51.875Z,165
2017-06-23T03:54:53.763Z,150
2017-06-23T03:56:07.903Z,140
2017-06-23T03:57:09.788Z,140
2017-06-23T03:58:11.680Z,135
2017-06-23T03:59:13.544Z,145
2017-06-23T04:00:15.351Z,160
2017-06-23T04:01:17.177Z,165
2017-06-23T04:02:19.069Z,180
2017-06-23T04:03:20.961Z,160
2017-06-23T04:04:22.855Z,125
2017-06-23T04:05:37.008Z,135
2017-06-23T04:06:38.884Z,150
2017-06-23T04:07:40.766Z,175
2017-06-23T04:08:42.637Z,225
2017-06-23T04:09:44.467Z,280
2017-06-23T04:10:46.295Z,245
2017-06-23T04:11:48.162Z,265
2017-06-23T04:12:50.037Z,290
2017-06-23T04:13:51.909Z,325
2017-06-23T04:15:06.067Z,280
2017-06-23T04:16:07.937Z,250
2017-06-23T04:17:09.807Z,260
2017-06-23T04:18:11.694Z,270
2017-06-23T04:19:13.505Z,290
2017-06-23T04:20:15.312Z,310
2017-06-23T04:21:17.203Z,310
2017-06-23T04:22:19.077Z,345
2017-06-23T04:23:20.972Z,415
2017-06-23T04:24:35.129Z,400
2017-06-23T04:25:36.999Z,385
2017-06-23T04:26:38.889Z,395
2017-06-23T04:27:40.753Z,365
2017-06-23T04:28:42.565Z,325
2017-06-23T04:29:44.398Z,320
2017-06-23T04:30:46.286Z,295
2017-06-23T04:31:48.180Z,285
2017-06-23T04:32:50.059Z,285
2017-06-23T04:34:04.208Z,290
2017-06-23T04:35:06.078Z,345
2017-06-23T04:36:07.966Z,320
2017-06-23T04:37:09.835Z,350
2017-06-23T04:38:11.672Z,370
2017-06-23T04:39:13.491Z,315
2017-06-23T04:40:15.367Z,330
2017-06-23T04:41:17.260Z,365
2017-06-23T04:42:19.133Z,385
2017-06-23T04:43:33.274Z,365
2017-06-23T04:44:35.159Z,575
2017-06-23T04:45:37.030Z,560
2017-06-23T04:46:38.902Z,510
2017-06-23T04:47:40.740Z,390
2017-06-23T04:48:42.563Z,335
2017-06-23T04:49:44.439Z,370
2017-06-23T04:50:46.288Z,390
2017-06-23T04:51:48.106Z,435
2017-06-23T04:53:02.263Z,450
2017-06-23T04:54:04.153Z,505
2017-06-23T04:55:06.055Z,620
2017-06-23T04:56:07.947Z,525
2017-06-23T04:57:09.778Z,400
2017-06-23T04:58:11.583Z,440
2017-06-23T04:59:13.454Z,585
2017-06-23T05:00:15.327Z,350
2017-06-23T05:01:17.207Z,305
2017-06-23T05:02:31.362Z,275
2017-06-23T05:03:33.235Z,245
2017-06-23T05:04:35.129Z,215
2017-06-23T05:05:37.018Z,195
2017-06-23T05:06:38.830Z,240
2017-06-23T05:07:40.666Z,200
2017-06-23T05:08:42.555Z,195
2017-06-23T05:09:44.448Z,225
2017-06-23T05:10:46.346Z,275
2017-06-23T05:12:00.507Z,280
2017-06-23T05:13:02.395Z,250
2017-06-23T05:14:04.286Z,240
2017-06-23T05:15:06.157Z,235
2017-06-23T05:16:07.986Z,265
2017-06-23T05:17:09.812Z,205
2017-06-23T05:18:11.703Z,200
2017-06-23T05:19:13.575Z,190
2017-06-23T05:20:15.443Z,170
2017-06-23T05:21:29.581Z,185
2017-06-23T05:22:31.448Z,220
2017-06-23T05:23:33.315Z,230
2017-06-23T05:24:35.193Z,265
2017-06-23T05:25:37.018Z,275
2017-06-23T05:26:38.843Z,270
2017-06-23T05:27:40.734Z,265
2017-06-23T05:28:42.623Z,225
2017-06-23T05:29:44.497Z,195
2017-06-23T05:30:58.656Z,185
2017-06-23T05:32:00.541Z,180
2017-06-23T05:33:02.411Z,165
2017-06-23T05:34:04.284Z,150
2017-06-23T05:35:06.109Z,140
2017-06-23T05:36:07.916Z,130
2017-06-23T05:37:09.789Z,120
2017-06-23T05:38:11.663Z,115
2017-06-23T05:39:13.549Z,120
2017-06-23T05:40:27.684Z,125
2017-06-23T05:41:29.574Z,130
2017-06-23T05:42:31.467Z,140
2017-06-23T05:43:33.335Z,170
2017-06-23T05:44:35.162Z,195
2017-06-23T05:45:36.986Z,190
2017-06-23T05:46:38.879Z,195
2017-06-23T05:47:40.745Z,210
2017-06-23T05:48:42.621Z,215
2017-06-23T05:49:56.776Z,210
2017-06-23T05:50:58.648Z,210
2017-06-23T05:52:00.539Z,235
2017-06-23T05:53:02.430Z,245
2017-06-23T05:54:04.260Z,275
2017-06-23T05:55:06.087Z,350
2017-06-23T05:56:07.984Z,400
2017-06-23T05:57:09.871Z,435
2017-06-23T05:58:11.751Z,460
2017-06-23T05:59:25.891Z,480
2017-06-23T06:00:27.779Z,490
2017-06-23T06:01:29.669Z,470
2017-06-23T06:02:31.559Z,485
2017-06-23T06:03:33.371Z,480
2017-06-23T06:04:35.175Z,415
2017-06-23T06:05:37.053Z,385
2017-06-23T06:06:38.904Z,365
2017-06-23T06:07:40.731Z,475
2017-06-23T06:08:54.920Z,425
2017-06-23T06:09:56.790Z,410
2017-06-23T06:10:58.690Z,425
2017-06-23T06:12:00.555Z,405
2017-06-23T06:13:02.366Z,405
2017-06-23T06:14:04.196Z,450
2017-06-23T06:15:06.112Z,480
2017-06-23T06:16:07.982Z,440
2017-06-23T06:17:09.879Z,325
2017-06-23T06:18:24.032Z,205
2017-06-23T06:19:25.902Z,185
2017-06-23T06:20:27.797Z,160
2017-06-23T06:21:29.686Z,140
2017-06-23T06:22:31.515Z,140
2017-06-23T06:23:33.341Z,140
2017-06-23T06:24:35.213Z,175
2017-06-23T06:25:37.106Z,130
2017-06-23T06:26:38.975Z,115
2017-06-23T06:27:53.120Z,125
2017-06-23T06:28:55.002Z,130
2017-06-23T06:29:56.871Z,135
2017-06-23T06:30:58.743Z,150
2017-06-23T06:32:00.577Z,110
2017-06-23T06:33:02.403Z,95
2017-06-23T06:34:04.271Z,95
2017-06-23T06:35:06.147Z,115
2017-06-23T06:36:08.002Z,125
2017-06-23T06:37:22.165Z,125
2017-06-23T06:38:24.051Z,90
2017-06-23T06:39:25.938Z,105
2017-06-23T06:40:27.810Z,115
2017-06-23T06:41:29.642Z,110
2017-06-23T06:42:31.467Z,100
2017-06-23T06:43:33.334Z,100
2017-06-23T06:44:35.208Z,85
2017-06-23T06:45:37.073Z,95
2017-06-23T06:46:51.212Z,100
2017-06-23T06:47:53.086Z,110
2017-06-23T06:48:54.977Z,120
2017-06-23T06:49:56.869Z,115
2017-06-23T06:50:58.691Z,125
2017-06-23T06:52:00.491Z,130
2017-06-23T06:53:02.370Z,145
2017-06-23T06:54:04.241Z,165
2017-06-23T06:55:06.108Z,155
2017-06-23T06:56:20.246Z,145
2017-06-23T06:57:22.132Z,130
2017-06-23T06:58:24.005Z,125
2017-06-23T06:59:25.894Z,115
2017-06-23T07:00:27.694Z,135
2017-06-23T07:01:29.499Z,100
2017-06-23T07:02:31.366Z,95
2017-06-23T07:03:33.237Z,145
2017-06-23T07:04:35.131Z,130
2017-06-23T07:05:49.291Z,110
2017-06-23T07:06:51.159Z,120
2017-06-23T07:07:53.052Z,135
2017-06-23T07:08:54.941Z,125
2017-06-23T07:09:56.747Z,125
2017-06-23T07:10:58.572Z,145
2017-06-23T07:12:00.442Z,150
2017-06-23T07:13:02.317Z,120
2017-06-23T07:14:04.208Z,135
2017-06-23T07:15:18.345Z,160
2017-06-23T07:16:20.212Z,140
2017-06-23T07:17:22.079Z,140
2017-06-23T07:18:23.951Z,140
2017-06-23T07:19:25.777Z,160
2017-06-23T07:20:27.583Z,195
2017-06-23T07:21:29.452Z,195
2017-06-23T07:22:31.323Z,215
2017-06-23T07:23:33.198Z,260
2017-06-23T07:24:47.358Z,325
2017-06-23T07:25:49.242Z,315
2017-06-23T07:26:51.117Z,245
2017-06-23T07:27:53.005Z,255
2017-06-23T07:28:54.810Z,295
2017-06-23T07:29:56.621Z,300
2017-06-23T07:30:58.513Z,275
2017-06-23T07:32:00.404Z,260
2017-06-23T07:33:02.273Z,275
2017-06-23T07:34:16.412Z,290
2017-06-23T07:35:18.280Z,275
2017-06-23T07:36:20.174Z,260
2017-06-23T07:37:22.061Z,315
2017-06-23T07:38:23.866Z,250
2017-06-23T07:39:25.671Z,315
2017-06-23T07:40:27.542Z,370
2017-06-23T07:41:29.410Z,325
2017-06-23T07:42:31.283Z,220
2017-06-23T07:43:45.463Z,230
2017-06-23T07:44:47.332Z,230
2017-06-23T07:45:49.211Z,200
2017-06-23T07:46:51.099Z,205
2017-06-23T07:47:52.911Z,170
2017-06-23T07:48:54.739Z,195
2017-06-23T07:49:56.623Z,175
2017-06-23T07:50:58.496Z,180
2017-06-23T07:52:00.389Z,210
2017-06-23T07:53:14.547Z,235
2017-06-23T07:54:16.436Z,255
2017-06-23T07:55:18.330Z,235
2017-06-23T07:56:20.197Z,245
2017-06-23T07:57:22.006Z,295
2017-06-23T07:58:23.840Z,380
2017-06-23T07:59:25.727Z,320
2017-06-23T08:00:27.623Z,335
2017-06-23T08:01:29.515Z,420
2017-06-23T08:02:43.670Z,435
2017-06-23T08:03:45.543Z,315
2017-06-23T08:04:47.435Z,345
2017-06-23T08:05:49.302Z,410
2017-06-23T08:06:51.117Z,395
2017-06-23T08:07:52.937Z,505
2017-06-23T08:08:54.814Z,350
2017-06-23T08:09:56.711Z,210
2017-06-23T08:10:58.604Z,180
2017-06-23T08:12:12.765Z,155
2017-06-23T08:13:14.627Z,170
2017-06-23T08:14:16.504Z,195
2017-06-23T08:15:18.392Z,210
2017-06-23T08:16:20.197Z,200
2017-06-23T08:17:22.004Z,195
2017-06-23T08:18:23.899Z,255
2017-06-23T08:19:25.770Z,355
2017-06-23T08:20:27.661Z,355
2017-06-23T08:21:41.797Z,390
2017-06-23T08:22:43.688Z,450
2017-06-23T08:23:45.579Z,510
2017-06-23T08:24:47.442Z,625
2017-06-23T08:25:49.260Z,825
2017-06-23T08:26:51.082Z,935
2017-06-23T08:27:52.984Z,930
2017-06-23T08:28:54.859Z,800
2017-06-23T08:29:56.734Z,650
2017-06-23T08:31:10.872Z,550
2017-06-23T08:32:12.763Z,580
2017-06-23T08:33:14.657Z,530
2017-06-23T08:34:16.530Z,690
2017-06-23T08:35:18.354Z,715
2017-06-23T08:36:20.164Z,785
2017-06-23T08:37:22.042Z,680
2017-06-23T08:38:23.939Z,545
2017-06-23T08:39:25.833Z,455
2017-06-23T08:40:39.997Z,425
2017-06-23T08:41:41.866Z,410
2017-06-23T08:42:43.754Z,390
2017-06-23T08:43:45.642Z,355
2017-06-23T08:44:47.454Z,345
2017-06-23T08:45:49.277Z,325
2017-06-23T08:46:51.154Z,335
2017-06-23T08:47:53.024Z,340
2017-06-23T08:48:54.904Z,340
2017-06-23T08:50:09.065Z,390
2017-06-23T08:51:10.955Z,475
2017-06-23T08:52:12.844Z,520
2017-06-23T08:53:14.714Z,570
2017-06-23T08:54:16.545Z,595
2017-06-23T08:55:18.374Z,615
2017-06-23T08:56:20.266Z,635
2017-06-23T08:57:22.138Z,595
2017-06-23T08:58:24.012Z,575
2017-06-23T08:59:38.174Z,595
2017-06-23T09:00:40.048Z,585
2017-06-23T09:01:41.937Z,570
2017-06-23T09:02:43.833Z,515
2017-06-23T09:03:45.663Z,505
2017-06-23T09:04:47.495Z,450
2017-06-23T09:05:49.389Z,505
2017-06-23T09:06:51.261Z,535
2017-06-23T09:07:53.157Z,535
2017-06-23T09:09:07.373Z,590
2017-06-23T09:10:09.261Z,675
2017-06-23T09:11:11.137Z,710
2017-06-23T09:12:13.008Z,585
2017-06-23T09:13:14.818Z,515
2017-06-23T09:14:16.643Z,525
2017-06-23T09:15:18.521Z,495
2017-06-23T09:16:20.414Z,465
2017-06-23T09:17:22.288Z,405
2017-06-23T09:18:36.443Z,355
2017-06-23T09:19:38.315Z,360
2017-06-23T09:20:40.184Z,340
2017-06-23T09:21:42.055Z,365
2017-06-23T09:22:43.863Z,355
2017-06-23T09:23:45.688Z,355
2017-06-23T09:24:47.559Z,340
2017-06-23T09:25:49.432Z,325
2017-06-23T09:26:51.309Z,325
2017-06-23T09:28:05.442Z,310
2017-06-23T09:29:07.315Z,275
2017-06-23T09:30:09.203Z,270
2017-06-23T09:31:11.077Z,270
2017-06-23T09:32:12.882Z,235
2017-06-23T09:33:14.687Z,230
2017-06-23T09:34:16.558Z,260
2017-06-23T09:35:18.431Z,355
2017-06-23T09:36:20.310Z,490
2017-06-23T09:37:34.445Z,470
2017-06-23T09:38:36.317Z,445
2017-06-23T09:39:38.204Z,405
2017-06-23T09:40:40.074Z,385
2017-06-23T09:41:41.905Z,395
2017-06-23T09:42:43.736Z,365
2017-06-23T09:43:45.610Z,340
2017-06-23T09:44:47.504Z,295
2017-06-23T09:45:49.399Z,335
2017-06-23T09:47:03.531Z,400
2017-06-23T09:48:05.393Z,385
2017-06-23T09:49:07.269Z,385
2017-06-23T09:50:09.158Z,350
2017-06-23T09:51:10.970Z,300
2017-06-23T09:52:12.816Z,285
2017-06-23T09:53:14.684Z,230
2017-06-23T09:54:16.575Z,260
2017-06-23T09:55:18.448Z,340
2017-06-23T09:56:32.586Z,295
2017-06-23T09:57:34.458Z,310
2017-06-23T09:58:36.353Z,270
2017-06-23T09:59:38.264Z,215
2017-06-23T10:00:40.073Z,190
2017-06-23T10:01:41.883Z,175
2017-06-23T10:02:43.777Z,215
2017-06-23T10:03:45.670Z,310
2017-06-23T10:04:47.541Z,430
2017-06-23T10:06:01.870Z,465
2017-06-23T10:07:03.731Z,385
2017-06-23T10:08:05.606Z,390
2017-06-23T10:09:07.498Z,415
2017-06-23T10:10:09.327Z,375
2017-06-23T10:11:11.158Z,335
2017-06-23T10:12:13.050Z,390
2017-06-23T10:13:14.925Z,475
2017-06-23T10:14:16.816Z,500
2017-06-23T10:15:30.971Z,485
2017-06-23T10:16:32.937Z,460
2017-06-23T10:17:34.826Z,350
2017-06-23T10:18:36.705Z,305
2017-06-23T10:19:38.614Z,285
2017-06-23T10:20:40.435Z,270
2017-06-23T10:21:42.311Z,230
2017-06-23T10:22:44.206Z,260
2017-06-23T10:23:46.101Z,265
2017-06-23T10:25:00.263Z,205
2017-06-23T10:26:02.151Z,210
2017-06-23T10:27:04.022Z,200
2017-06-23T10:28:05.908Z,165
2017-06-23T10:29:07.720Z,150
2017-06-23T10:30:09.548Z,165
2017-06-23T10:31:11.450Z,200
2017-06-23T10:32:13.341Z,225
2017-06-23T10:33:15.215Z,235
2017-06-23T10:34:29.373Z,240
2017-06-23T10:35:31.309Z,250
2017-06-23T10:36:33.185Z,310
2017-06-23T10:37:35.077Z,360
2017-06-23T10:38:36.912Z,450
2017-06-23T10:39:38.716Z,485
2017-06-23T10:40:40.609Z,595
2017-06-23T10:41:42.488Z,775
2017-06-23T10:42:44.357Z,885
2017-06-23T10:43:58.512Z,850
2017-06-23T10:45:00.384Z,885
2017-06-23T10:46:02.279Z,890
2017-06-23T10:47:04.169Z,830
2017-06-23T10:48:05.983Z,830
2017-06-23T10:49:07.794Z,855
2017-06-23T10:50:09.689Z,865
2017-06-23T10:51:11.580Z,825
2017-06-23T10:52:13.462Z,805
2017-06-23T10:53:27.626Z,810
2017-06-23T10:54:29.524Z,790
2017-06-23T10:55:31.414Z,785
2017-06-23T10:56:33.305Z,875
2017-06-23T10:57:35.114Z,805
2017-06-23T10:58:36.928Z,805
2017-06-23T10:59:38.860Z,895
2017-06-23T11:00:40.737Z,685
2017-06-23T11:01:42.629Z,690
2017-06-23T11:02:56.768Z,860
2017-06-23T11:03:58.646Z,900
2017-06-23T11:05:00.541Z,835
2017-06-23T11:06:02.431Z,740
2017-06-23T11:07:04.245Z,720
2017-06-23T11:08:06.078Z,745
2017-06-23T11:09:07.975Z,610
2017-06-23T11:10:09.869Z,445
2017-06-23T11:11:11.748Z,540
2017-06-23T11:12:25.891Z,840
2017-06-23T11:13:27.766Z,825
2017-06-23T11:14:29.636Z,805
2017-06-23T11:15:31.531Z,735
2017-06-23T11:16:33.362Z,685
2017-06-23T11:17:35.175Z,710
2017-06-23T11:18:37.069Z,725
2017-06-23T11:19:38.944Z,765
2017-06-23T11:20:40.826Z,750
2017-06-23T11:21:54.962Z,745
2017-06-23T11:22:56.853Z,735
2017-06-23T11:23:58.752Z,760
2017-06-23T11:25:00.645Z,755
2017-06-23T11:26:02.482Z,750
2017-06-23T11:27:04.291Z,815
2017-06-23T11:28:06.183Z,780
2017-06-23T11:29:08.082Z,795
2017-06-23T11:30:09.977Z,925
2017-06-23T11:31:24.116Z,925
2017-06-23T11:32:25.988Z,860
2017-06-23T11:33:27.863Z,845
2017-06-23T11:34:29.758Z,835
2017-06-23T11:35:31.590Z,830
2017-06-23T11:36:33.403Z,765
2017-06-23T11:37:35.304Z,660
2017-06-23T11:38:37.181Z,540
2017-06-23T11:39:39.058Z,595
2017-06-23T11:40:53.218Z,590
2017-06-23T11:41:55.095Z,565
2017-06-23T11:42:56.987Z,640
2017-06-23T11:43:58.863Z,715
2017-06-23T11:45:00.672Z,780
2017-06-23T11:46:02.495Z,790
2017-06-23T11:47:04.359Z,780
2017-06-23T11:48:06.252Z,760
2017-06-23T11:49:08.129Z,790
2017-06-23T11:50:22.275Z,830
2017-06-23T11:51:24.163Z,845
2017-06-23T11:52:26.035Z,815
2017-06-23T11:53:27.910Z,765
2017-06-23T11:54:29.744Z,770
2017-06-23T11:55:31.637Z,785
2017-06-23T11:56:33.528Z,760
2017-06-23T11:57:35.405Z,765
2017-06-23T11:58:37.275Z,795
2017-06-23T11:59:51.548Z,800
2017-06-23T12:00:53.470Z,735
2017-06-23T12:01:55.359Z,680
2017-06-23T12:02:57.237Z,660
2017-06-23T12:03:59.049Z,695
2017-06-23T12:05:00.874Z,610
2017-06-23T12:06:02.749Z,505
2017-06-23T12:07:04.627Z,465
2017-06-23T12:08:06.522Z,445
2017-06-23T12:09:20.660Z,425
2017-06-23T12:10:22.533Z,400
2017-06-23T12:11:24.406Z,445
2017-06-23T12:12:26.302Z,550
2017-06-23T12:13:28.133Z,585
2017-06-23T12:14:29.945Z,685
2017-06-23T12:15:31.852Z,740
2017-06-23T12:16:33.717Z,785
2017-06-23T12:17:35.608Z,845
2017-06-23T12:18:49.754Z,920
2017-06-23T12:19:51.621Z,880
2017-06-23T12:20:53.493Z,805
2017-06-23T12:21:55.368Z,785
2017-06-23T12:22:57.177Z,735
2017-06-23T12:23:59.004Z,635
2017-06-23T12:25:00.885Z,545
2017-06-23T12:26:02.785Z,480
2017-06-23T12:27:04.651Z,380
2017-06-23T12:28:18.803Z,345
2017-06-23T12:29:20.692Z,310
2017-06-23T12:30:22.573Z,325
2017-06-23T12:31:24.464Z,305
2017-06-23T12:32:26.277Z,320
2017-06-23T12:33:28.111Z,345
2017-06-23T12:34:29.999Z,355
2017-06-23T12:35:31.880Z,485
2017-06-23T12:36:33.775Z,600
2017-06-23T12:37:47.941Z,555
2017-06-23T12:38:49.833Z,515
2017-06-23T12:39:51.717Z,505
2017-06-23T12:40:53.605Z,425
2017-06-23T12:41:55.417Z,395
2017-06-23T12:42:57.225Z,420
2017-06-23T12:43:59.093Z,420
2017-06-23T12:45:00.971Z,480
2017-06-23T12:46:02.867Z,565
2017-06-23T12:47:17.032Z,635
2017-06-23T12:48:18.925Z,685
2017-06-23T12:49:20.825Z,655
2017-06-23T12:50:22.716Z,560
2017-06-23T12:51:24.545Z,440
2017-06-23T12:52:26.355Z,365
2017-06-23T12:53:28.231Z,345
2017-06-23T12:54:30.108Z,330
2017-06-23T12:55:31.998Z,365
2017-06-23T12:56:46.145Z,450
2017-06-23T12:57:48.015Z,505
2017-06-23T12:58:49.890Z,495
2017-06-23T12:59:51.785Z,495
2017-06-23T13:00:53.615Z,470
2017-06-23T13:01:55.428Z,565
2017-06-23T13:02:57.327Z,605
2017-06-23T13:03:59.203Z,575
2017-06-23T13:05:01.072Z,595
2017-06-23T13:06:15.235Z,615
2017-06-23T13:07:17.132Z,585
2017-06-23T13:08:19.004Z,580
2017-06-23T13:09:20.900Z,590
2017-06-23T13:10:22.708Z,555
2017-06-23T13:11:24.520Z,495
2017-06-23T13:12:26.413Z,500
2017-06-23T13:13:28.285Z,530
2017-06-23T13:14:30.163Z,615
2017-06-23T13:15:44.327Z,680
2017-06-23T13:16:46.195Z,685
2017-06-23T13:17:48.070Z,685
2017-06-23T13:18:49.939Z,660
2017-06-23T13:19:51.750Z,645
2017-06-23T13:20:53.566Z,630
2017-06-23T13:21:55.464Z,635
2017-06-23T13:22:57.361Z,660
2017-06-23T13:23:59.262Z,680
2017-06-23T13:25:13.468Z,665
2017-06-23T13:26:15.341Z,635
2017-06-23T13:27:17.219Z,595
2017-06-23T13:28:19.117Z,610
2017-06-23T13:29:20.927Z,620
2017-06-23T13:30:22.758Z,650
2017-06-23T13:31:24.632Z,725
2017-06-23T13:32:26.513Z,755
2017-06-23T13:33:28.383Z,705
2017-06-23T13:34:42.530Z,705
2017-06-23T13:35:44.421Z,715
2017-06-23T13:36:46.316Z,730
2017-06-23T13:37:48.204Z,715
2017-06-23T13:38:50.017Z,680
2017-06-23T13:39:51.823Z,575
2017-06-23T13:40:53.704Z,490
2017-06-23T13:41:55.575Z,435
2017-06-23T13:42:57.453Z,475
2017-06-23T13:44:11.593Z,490
2017-06-23T13:45:13.467Z,550
2017-06-23T13:46:15.363Z,570
2017-06-23T13:47:17.256Z,545
2017-06-23T13:48:19.065Z,515
2017-06-23T13:49:20.879Z,560
2017-06-23T13:50:22.775Z,565
2017-06-23T13:51:24.652Z,540
2017-06-23T13:52:26.544Z,545
2017-06-23T13:53:40.710Z,540
2017-06-23T13:54:42.595Z,560
2017-06-23T13:55:44.472Z,525
2017-06-23T13:56:46.372Z,475
2017-06-23T13:57:48.202Z,420
2017-06-23T13:58:50.014Z,415
2017-06-23T13:59:51.911Z,455
2017-06-23T14:00:53.821Z,520
2017-06-23T14:01:55.674Z,585
2017-06-23T14:03:09.834Z,665
2017-06-23T14:04:11.729Z,695
2017-06-23T14:05:13.597Z,685
2017-06-23T14:06:15.466Z,705
2017-06-23T14:07:17.304Z,710
2017-06-23T14:08:19.097Z,670
2017-06-23T14:09:20.993Z,665
2017-06-23T14:10:22.866Z,715
2017-06-23T14:11:24.761Z,770
2017-06-23T14:12:38.926Z,810
2017-06-23T14:13:40.813Z,775
2017-06-23T14:14:42.686Z,700
2017-06-23T14:15:44.563Z,625
2017-06-23T14:16:46.398Z,560
2017-06-23T14:17:48.208Z,535
2017-06-23T14:18:50.106Z,565
2017-06-23T14:19:52.004Z,575
2017-06-23T14:20:53.881Z,600
2017-06-23T14:22:08.048Z,530
2017-06-23T14:23:09.999Z,490
2017-06-23T14:24:11.860Z,475
2017-06-23T14:25:13.779Z,465
2017-06-23T14:26:15.662Z,460
2017-06-23T14:27:17.498Z,460
2017-06-23T14:28:19.421Z,460
2017-06-23T14:29:21.350Z,475
2017-06-23T14:30:23.294Z,525
2017-06-23T14:31:37.505Z,550
2017-06-23T14:32:39.414Z,545
2017-06-23T14:33:41.319Z,565
2017-06-23T14:34:43.243Z,545
2017-06-23T14:35:45.054Z,470
2017-06-23T14:36:46.879Z,435
2017-06-23T14:37:48.754Z,455
2017-06-23T14:38:50.631Z,485
2017-06-23T14:39:52.501Z,495
2017-06-23T14:41:06.645Z,505
2017-06-23T14:42:08.516Z,515
2017-06-23T14:43:10.447Z,515
2017-06-23T14:44:12.392Z,530